Time;durP1;ratioP1;P1;durP2;ratioP2;P2;SDS_P1;SDS_P2;PMS_P1;PMS_P2;Temp;Humidity;BMP_temperature;BMP_pressure;BME280_temperature;BME280_humidity;BME280_pressure;Samples;Min_cycle;Max_cycle;Signal;HPM_P1;HPM_P2
2023/05/10 00:03:08;;;;;;;7.47;3.05;;;;;;;19.77;51.67;96422.63;10430323;28;20046;-51
2023/05/10 00:08:27;;;;;;;5.43;2.67;;;;;;;19.77;51.83;96419.16;10428924;28;20077;-49
2023/05/10 00:13:47;;;;;;;6.45;3.00;;;;;;;19.75;51.86;96401.34;10396821;28;20056;-49
2023/05/10 00:19:07;;;;;;;4.70;2.47;;;;;;;19.74;51.71;96404.41;10423191;28;20041;-50
2023/05/10 00:24:26;;;;;;;7.32;3.33;;;;;;;19.74;51.73;96401.69;10407286;28;20037;-48
2023/05/10 00:29:46;;;;;;;5.47;2.88;;;;;;;19.74;51.79;96409.81;10401314;28;20124;-50
2023/05/10 00:35:05;;;;;;;5.68;2.60;;;;;;;19.73;51.98;96405.50;10398368;28;20091;-50
2023/05/10 00:40:26;;;;;;;6.00;2.80;;;;;;;19.72;51.78;96398.56;10418537;28;20038;-48
2023/05/10 00:45:50;;;;;;;4.43;2.65;;;;;;;19.72;51.85;96398.56;10377512;28;20050;-47
2023/05/10 00:51:10;;;;;;;3.92;2.58;;;;;;;19.72;51.93;96401.25;10375173;28;20053;-50
2023/05/10 00:56:30;;;;;;;4.88;2.50;;;;;;;19.70;51.81;96385.34;10389906;28;20045;-49
2023/05/10 01:01:49;;;;;;;4.40;2.25;;;;;;;19.70;51.89;96388.03;10410631;28;20042;-54
2023/05/10 01:07:08;;;;;;;4.55;2.40;;;;;;;19.69;52.08;96374.84;10427306;28;20056;-53
2023/05/10 01:12:28;;;;;;;5.35;2.60;;;;;;;19.69;51.90;96377.56;10403471;28;20444;-54
2023/05/10 01:17:48;;;;;;;5.28;2.75;;;;;;;19.70;51.97;96381.84;10399068;28;20380;-54
2023/05/10 01:23:23;;;;;;;4.18;2.42;;;;;;;19.67;52.04;96375.19;10378788;28;20096;-54
2023/05/10 01:29:04;;;;;;;4.53;2.42;;;;;;;19.67;52.09;96369.00;10407486;28;20046;-53
2023/05/10 01:34:27;;;;;;;4.65;2.25;;;;;;;19.67;52.01;96371.69;10388750;28;20049;-53
2023/05/10 01:39:51;;;;;;;3.95;2.33;;;;;;;19.66;52.10;96368.22;10396487;28;20045;-53
2023/05/10 01:45:20;;;;;;;4.80;2.67;;;;;;;19.65;52.10;96363.91;10407280;28;20486;-53
2023/05/10 01:50:42;;;;;;;4.88;2.33;;;;;;;19.65;52.13;96363.13;10385599;28;20050;-53
2023/05/10 01:56:02;;;;;;;4.18;2.50;;;;;;;19.63;52.19;96366.16;10425328;28;20045;-53
2023/05/10 02:01:22;;;;;;;3.55;2.10;;;;;;;19.65;52.16;96368.53;10422141;28;20038;-53
2023/05/10 02:06:43;;;;;;;4.68;2.45;;;;;;;19.62;52.16;96361.09;10385918;28;20486;-53
2023/05/10 02:12:04;;;;;;;2.63;2.00;;;;;;;19.60;52.12;96350.63;10395913;28;20041;-54
2023/05/10 02:17:24;;;;;;;4.38;2.25;;;;;;;19.62;52.16;96361.09;10400635;28;20042;-54
2023/05/10 02:22:45;;;;;;;4.38;2.45;;;;;;;19.61;52.14;96373.03;10428140;28;20042;-54
2023/05/10 02:28:05;;;;;;;4.15;2.08;;;;;;;19.60;52.20;96366.84;10427350;28;20042;-53
2023/05/10 02:33:25;;;;;;;4.07;1.98;;;;;;;19.60;52.08;96368.75;10419856;28;20045;-53
2023/05/10 02:38:45;;;;;;;2.90;2.17;;;;;;;19.59;52.11;96359.06;10395581;28;20521;-53
2023/05/10 02:44:07;;;;;;;3.85;2.22;;;;;;;19.59;52.17;96353.66;10427445;28;20041;-53
2023/05/10 02:49:27;;;;;;;3.30;2.10;;;;;;;19.58;52.04;96354.78;10405903;28;20058;-54
2023/05/10 02:54:52;;;;;;;4.53;2.30;;;;;;;19.57;52.21;96356.69;10407054;28;20046;-53
2023/05/10 03:00:11;;;;;;;3.47;2.25;;;;;;;19.56;52.20;96355.91;10419275;28;20517;-53
2023/05/10 03:05:31;;;;;;;2.45;1.80;;;;;;;19.55;52.08;96348.13;10433070;28;20041;-53
2023/05/10 03:11:22;;;;;;;3.30;2.33;;;;;;;19.55;52.08;96350.84;10402151;28;20100;-53
2023/05/10 03:16:46;;;;;;;2.83;2.10;;;;;;;19.55;51.99;96345.44;10406016;28;20099;-53
2023/05/10 03:22:10;;;;;;;3.22;2.05;;;;;;;19.54;52.04;96341.16;10410437;28;20097;-53
2023/05/10 03:27:31;;;;;;;2.60;1.80;;;;;;;19.53;52.04;96339.59;10390314;28;20494;-53
2023/05/10 03:32:53;;;;;;;2.47;1.70;;;;;;;19.51;52.00;96342.63;10393390;28;20038;-53
2023/05/10 03:38:13;;;;;;;4.45;1.90;;;;;;;19.52;51.98;96348.81;10400032;28;20052;-53
2023/05/10 03:43:33;;;;;;;4.70;1.80;;;;;;;19.51;52.06;96353.41;10414445;28;20042;-53
2023/05/10 03:48:52;;;;;;;2.70;2.00;;;;;;;19.51;51.97;96361.53;10418519;28;20058;-53
2023/05/10 03:54:12;;;;;;;2.72;2.03;;;;;;;19.50;52.05;96367.25;10396624;28;20478;-53
2023/05/10 03:59:31;;;;;;;5.15;1.90;;;;;;;19.49;52.06;96376.50;10390022;28;20042;-53
2023/05/10 04:04:51;;;;;;;1.98;1.73;;;;;;;19.48;52.01;96373.00;10429731;28;20037;-53
2023/05/10 04:10:11;;;;;;;3.10;1.88;;;;;;;19.48;52.27;96367.63;10430309;28;20405;-53
2023/05/10 04:15:31;;;;;;;2.65;1.73;;;;;;;19.48;52.93;96364.91;10408730;28;20065;-54
2023/05/10 04:20:50;;;;;;;5.32;1.73;;;;;;;19.49;52.67;96369.19;10389545;28;20046;-53
2023/05/10 04:26:10;;;;;;;2.88;1.50;;;;;;;19.49;53.03;96366.47;10421162;28;20049;-52
2023/05/10 04:31:29;;;;;;;3.00;1.20;;;;;;;19.53;52.99;96361.19;10412668;28;20037;-54
2023/05/10 04:36:49;;;;;;;2.17;1.60;;;;;;;19.52;52.40;96365.00;10416690;28;20404;-53
2023/05/10 04:42:09;;;;;;;1.75;1.40;;;;;;;19.52;52.31;96357.72;10406051;28;20099;-54
2023/05/10 04:47:28;;;;;;;1.75;1.40;;;;;;;19.54;53.11;96357.34;10428416;28;20398;-53
2023/05/10 04:52:48;;;;;;;2.40;1.20;;;;;;;19.58;53.43;96360.19;10403916;28;20049;-53
2023/05/10 04:58:07;;;;;;;7.78;1.73;;;;;;;19.60;52.81;96344.44;10427718;28;20049;-53
2023/05/10 05:03:26;;;;;;;3.00;1.60;;;;;;;19.60;52.04;96350.63;10415434;28;20052;-53
2023/05/10 05:08:46;;;;;;;3.42;1.88;;;;;;;19.61;52.62;96351.41;10427519;28;20049;-53
2023/05/10 05:14:06;;;;;;;13.10;3.60;;;;;;;19.58;49.49;96349.38;10414041;28;20053;-52
2023/05/10 05:19:25;;;;;;;5.55;2.10;;;;;;;19.61;51.18;96357.59;10405006;28;20505;-52
2023/05/10 05:24:44;;;;;;;9.90;2.80;;;;;;;19.65;51.37;96355.03;10415517;28;20046;-53
2023/05/10 05:30:05;;;;;;;9.32;3.08;;;;;;;19.68;51.22;96359.75;10426892;28;20099;-53
2023/05/10 05:35:24;;;;;;;12.13;3.72;;;;;;;19.70;51.49;96350.19;10401889;28;20052;-53
2023/05/10 05:40:45;;;;;;;10.93;3.67;;;;;;;19.73;51.57;96346.84;10399354;28;20064;-52
2023/05/10 05:46:05;;;;;;;12.77;4.13;;;;;;;19.75;51.52;96350.00;10426572;28;20103;-52
2023/05/10 05:51:25;;;;;;;10.82;4.22;;;;;;;19.78;51.63;96345.03;10409667;28;20588;-53
2023/05/10 05:56:44;;;;;;;14.93;4.30;;;;;;;19.81;51.47;96355.19;10386282;28;20042;-53
2023/05/10 06:02:04;;;;;;;11.00;4.07;;;;;;;19.83;51.47;96364.53;10396002;28;20041;-53
2023/05/10 06:07:23;;;;;;;11.68;3.65;;;;;;;19.85;51.52;96367.69;10411787;28;20069;-53
2023/05/10 06:12:43;;;;;;;12.75;4.25;;;;;;;19.87;51.41;96378.94;10385945;28;20046;-53
2023/05/10 06:18:02;;;;;;;10.80;4.13;;;;;;;19.89;51.34;96381.31;10394836;28;20046;-53
2023/05/10 06:23:22;;;;;;;12.50;4.35;;;;;;;19.89;51.31;96376.69;10417137;28;20038;-52
2023/05/10 06:28:42;;;;;;;11.32;3.95;;;;;;;19.91;51.38;96362.84;10408258;28;20513;-53
2023/05/10 06:34:02;;;;;;;13.80;4.40;;;;;;;19.93;51.20;96361.41;10391767;28;20100;-52
2023/05/10 06:39:22;;;;;;;12.85;4.03;;;;;;;19.95;51.11;96378.09;10393764;28;20037;-52
2023/05/10 06:44:41;;;;;;;10.15;4.03;;;;;;;19.99;51.35;96377.41;10409482;28;20038;-53
2023/05/10 06:50:01;;;;;;;41.50;25.85;;;;;;;19.99;51.63;96370.06;10389599;28;20116;-53
2023/05/10 06:55:21;;;;;;;23.10;12.93;;;;;;;20.02;51.58;96376.72;10405983;28;20042;-53
2023/05/10 07:00:43;;;;;;;28.35;14.98;;;;;;;20.06;51.48;96377.63;10407801;28;20045;-53
2023/05/10 07:06:04;;;;;;;24.08;13.52;;;;;;;20.06;51.37;96378.41;10379286;28;20065;-52
2023/05/10 07:11:23;;;;;;;27.52;13.88;;;;;;;20.09;51.36;96377.75;10407768;28;20052;-53
2023/05/10 07:16:43;;;;;;;25.95;13.07;;;;;;;20.10;51.14;96373.13;10414428;28;20038;-53
2023/05/10 07:22:02;;;;;;;22.90;12.57;;;;;;;20.11;51.22;96374.69;10406953;28;20409;-53
2023/05/10 07:27:21;;;;;;;22.83;12.20;;;;;;;20.14;51.08;96379.44;10405464;28;20053;-53
2023/05/10 07:32:41;;;;;;;23.65;11.63;;;;;;;20.14;51.07;96374.81;10403440;28;20501;-53
2023/05/10 07:38:01;;;;;;;21.15;11.00;;;;;;;20.15;51.02;96376.41;10390738;28;20042;-53
2023/05/10 07:43:21;;;;;;;19.95;10.88;;;;;;;20.16;51.07;96382.59;10403778;28;20045;-53
2023/05/10 07:48:40;;;;;;;19.00;10.85;;;;;;;20.18;51.00;96380.34;10404800;28;20409;-52
2023/05/10 07:54:00;;;;;;;18.08;11.35;;;;;;;20.19;51.15;96381.94;10390445;28;20042;-53
2023/05/10 07:59:20;;;;;;;16.77;10.80;;;;;;;20.20;50.91;96377.28;10396163;28;20100;-53
2023/05/10 08:04:40;;;;;;;16.80;10.57;;;;;;;20.20;50.97;96383.50;10392609;28;20100;-53
2023/05/10 08:09:59;;;;;;;20.75;10.23;;;;;;;20.20;51.08;96388.91;10400912;28;20409;-52
2023/05/10 08:15:19;;;;;;;19.30;10.50;;;;;;;20.20;51.00;96383.50;10400468;28;20042;-53
2023/05/10 08:20:39;;;;;;;15.77;9.93;;;;;;;20.21;50.98;96379.66;10390249;28;20049;-53
2023/05/10 08:25:59;;;;;;;16.55;8.68;;;;;;;20.21;50.85;96379.66;10388832;28;20060;-53
2023/05/10 08:31:19;;;;;;;13.45;8.27;;;;;;;20.20;50.79;96382.72;10413639;28;20041;-53
2023/05/10 08:36:38;;;;;;;13.23;8.30;;;;;;;20.22;50.76;96383.16;10388594;28;20045;-53
2023/05/10 08:42:01;;;;;;;13.60;8.05;;;;;;;20.22;50.78;96397.47;10388262;28;20038;-53
2023/05/10 08:47:21;;;;;;;11.55;7.40;;;;;;;20.22;50.83;96392.06;10388217;28;20057;-53
2023/05/10 08:52:41;;;;;;;13.07;7.68;;;;;;;20.21;50.77;96401.31;10402394;28;20045;-52
2023/05/10 08:58:01;;;;;;;11.77;7.40;;;;;;;20.23;50.73;96399.06;10390441;28;20038;-53
2023/05/10 09:03:20;;;;;;;13.48;7.32;;;;;;;20.22;50.72;96394.75;10389651;28;20042;-53
2023/05/10 09:08:41;;;;;;;12.52;7.30;;;;;;;20.23;50.76;96393.66;10406756;28;20057;-53
2023/05/10 09:14:01;;;;;;;12.05;7.15;;;;;;;20.22;50.79;96397.47;10398270;28;20414;-53
2023/05/10 09:19:20;;;;;;;12.85;6.85;;;;;;;20.23;50.78;96398.25;10396655;28;20041;-53
2023/05/10 09:24:44;;;;;;;12.57;7.20;;;;;;;20.22;50.79;96402.88;10426369;28;20052;-53
2023/05/10 09:30:05;;;;;;;10.48;6.60;;;;;;;20.23;50.76;96398.25;10387061;28;20072;-53
2023/05/10 09:35:29;;;;;;;10.30;6.20;;;;;;;20.23;50.87;96403.66;10396510;28;20045;-53
2023/05/10 09:40:55;;;;;;;10.40;6.82;;;;;;;20.22;50.82;96407.50;10396685;28;20042;-53
2023/05/10 09:46:15;;;;;;;10.93;6.90;;;;;;;20.22;50.78;96394.75;10389916;28;20077;-52
2023/05/10 09:51:35;;;;;;;9.15;6.57;;;;;;;20.22;50.85;96396.69;10393426;28;20041;-53
2023/05/10 09:56:55;;;;;;;10.82;6.45;;;;;;;20.22;50.83;96394.75;10408659;28;20042;-53
2023/05/10 10:02:15;;;;;;;9.88;6.38;;;;;;;20.23;50.89;96403.66;10412595;28;20049;-53
2023/05/10 10:07:35;;;;;;;10.00;7.00;;;;;;;20.21;50.83;96395.91;10408003;28;20107;-53
2023/05/10 10:12:55;;;;;;;7.70;5.20;;;;;;;20.22;50.84;96404.78;10372760;28;20062;-53
2023/05/10 10:18:15;;;;;;;10.98;6.22;;;;;;;20.22;50.82;96402.88;10385514;28;20041;-53
2023/05/10 10:23:35;;;;;;;8.38;5.15;;;;;;;20.20;50.80;96394.31;10391302;28;20057;-53
2023/05/10 10:29:16;;;;;;;9.50;5.70;;;;;;;20.22;50.85;96397.47;10388302;28;20061;-53
2023/05/10 10:34:36;;;;;;;7.50;5.40;;;;;;;20.21;50.80;96395.91;10396923;28;20456;-52
2023/05/10 10:39:56;;;;;;;8.65;6.13;;;;;;;20.22;50.85;96385.88;10399479;28;20453;-52
2023/05/10 10:45:16;;;;;;;9.90;5.70;;;;;;;20.22;50.72;96388.56;10413001;28;20049;-52
2023/05/10 10:50:44;;;;;;;9.63;6.28;;;;;;;20.21;50.86;96390.50;10384090;28;20057;-53
2023/05/10 10:56:14;;;;;;;8.20;5.97;;;;;;;20.21;50.82;96378.84;10395280;28;20066;-52
2023/05/10 11:01:37;;;;;;;9.23;5.57;;;;;;;20.20;50.93;96375.38;10395074;28;20046;-52
2023/05/10 11:07:16;;;;;;;8.15;5.57;;;;;;;20.20;50.92;96377.28;10394774;28;20054;-53
2023/05/10 11:12:54;;;;;;;7.75;5.38;;;;;;;20.21;50.79;96371.56;10394897;28;20046;-52
2023/05/10 11:18:23;;;;;;;8.10;5.10;;;;;;;20.20;50.96;96380.00;10400930;28;20042;-53
2023/05/10 11:23:55;;;;;;;9.45;5.28;;;;;;;20.20;50.93;96383.50;10391316;28;20486;-52
2023/05/10 11:29:15;;;;;;;7.00;5.15;;;;;;;20.20;50.91;96380.78;10404656;28;20391;-53
2023/05/10 11:34:35;;;;;;;8.73;5.32;;;;;;;20.19;50.92;96373.81;10387113;28;20053;-54
2023/05/10 11:39:55;;;;;;;7.82;5.20;;;;;;;20.19;50.91;96381.94;10404033;28;20041;-52
2023/05/10 11:45:14;;;;;;;7.18;4.55;;;;;;;20.19;50.92;96381.94;10399842;28;20041;-53
2023/05/10 11:50:34;;;;;;;6.88;4.85;;;;;;;20.19;50.91;96379.22;10392559;28;20395;-52
2023/05/10 11:55:54;;;;;;;6.95;4.93;;;;;;;20.18;50.97;96377.63;10403630;28;20065;-53
2023/05/10 12:01:13;;;;;;;7.78;4.55;;;;;;;20.19;50.92;96381.94;10406936;28;20421;-53
2023/05/10 12:06:38;;;;;;;7.88;5.20;;;;;;;20.18;50.87;96390.38;10409265;28;20045;-52
2023/05/10 12:11:57;;;;;;;6.47;4.03;;;;;;;20.19;51.03;96383.81;10395762;28;20038;-53
2023/05/10 12:17:17;;;;;;;6.28;4.65;;;;;;;20.18;50.93;96391.16;10403761;28;20076;-53
2023/05/10 12:22:37;;;;;;;7.03;4.20;;;;;;;20.18;50.91;96401.97;10403571;28;20041;-52
2023/05/10 12:28:01;;;;;;;5.72;4.53;;;;;;;20.18;50.80;96401.19;10395091;28;20407;-53
2023/05/10 12:33:20;;;;;;;6.43;4.30;;;;;;;20.17;50.62;96400.41;10406206;28;20042;-53
2023/05/10 12:38:49;;;;;;;5.50;3.63;;;;;;;20.17;50.58;96402.31;10388762;28;20046;-52
2023/05/10 12:44:09;;;;;;;6.32;4.38;;;;;;;20.17;50.56;96395.00;10388237;28;20037;-53
2023/05/10 12:49:28;;;;;;;7.35;4.50;;;;;;;20.15;50.63;96392.63;10388714;28;20525;-53
2023/05/10 12:54:47;;;;;;;4.60;3.72;;;;;;;20.15;50.62;96398.03;10390922;28;20050;-52
2023/05/10 13:00:08;;;;;;;5.72;4.03;;;;;;;20.15;50.61;96395.31;10393720;28;20703;-52
2023/05/10 13:05:28;;;;;;;5.68;4.10;;;;;;;20.14;50.71;96401.84;10408218;28;20079;-53
2023/05/10 13:10:48;;;;;;;3.92;3.30;;;;;;;20.14;50.72;96398.38;10398731;28;20052;-53
2023/05/10 13:16:07;;;;;;;5.47;3.55;;;;;;;20.15;50.73;96397.25;10386139;28;20046;-53
2023/05/10 13:21:27;;;;;;;5.30;3.92;;;;;;;20.15;50.77;96394.56;10387022;28;20088;-53
2023/05/10 13:26:48;;;;;;;4.93;3.60;;;;;;;20.12;50.82;96393.28;10414421;28;20103;-53
2023/05/10 13:32:08;;;;;;;5.00;3.90;;;;;;;20.12;50.82;96390.59;10395635;28;20049;-53
2023/05/10 13:37:28;;;;;;;3.92;3.40;;;;;;;20.13;50.76;96394.06;10419030;28;20049;-53
2023/05/10 13:42:47;;;;;;;5.50;3.22;;;;;;;20.13;50.81;96391.38;10376344;28;20057;-52
2023/05/10 13:48:07;;;;;;;5.35;3.72;;;;;;;20.13;50.79;96394.06;10387040;28;20057;-53
2023/05/10 13:53:26;;;;;;;4.03;3.28;;;;;;;20.12;50.82;96395.22;10388968;28;20096;-54
2023/05/10 13:58:47;;;;;;;3.33;3.03;;;;;;;20.12;50.84;96387.88;10388841;28;20095;-53
2023/05/10 14:04:09;;;;;;;4.90;3.80;;;;;;;20.12;50.85;96387.88;10397159;28;20045;-53
2023/05/10 14:09:30;;;;;;;4.13;3.33;;;;;;;20.12;50.85;96387.09;10396908;28;20052;-53
2023/05/10 14:14:49;;;;;;;4.55;3.28;;;;;;;20.13;50.84;96383.25;10399066;28;20101;-53
2023/05/10 14:20:09;;;;;;;5.03;3.90;;;;;;;20.11;50.87;96386.31;10400152;28;20100;-53
2023/05/10 14:25:29;;;;;;;3.80;2.97;;;;;;;20.11;50.88;96374.69;10404972;28;20046;-53
2023/05/10 14:30:49;;;;;;;4.93;3.35;;;;;;;20.10;50.86;96375.84;10405208;28;20049;-53
2023/05/10 14:36:09;;;;;;;3.78;3.28;;;;;;;20.09;50.95;96375.06;10404598;28;20096;-53
2023/05/10 14:41:30;;;;;;;3.83;2.70;;;;;;;20.09;50.85;96385.06;10406743;28;20050;-53
2023/05/10 14:46:49;;;;;;;3.65;2.75;;;;;;;20.08;50.93;96386.97;10412377;28;20053;-53
2023/05/10 14:52:09;;;;;;;4.72;3.85;;;;;;;20.07;50.83;96387.31;10382724;28;20108;-53
2023/05/10 14:57:29;;;;;;;4.75;3.22;;;;;;;20.08;50.93;96386.19;10400810;28;20494;-52
2023/05/10 15:02:49;;;;;;;5.28;3.22;;;;;;;20.07;50.86;96396.22;10403338;28;20412;-52
2023/05/10 15:08:09;;;;;;;4.53;3.42;;;;;;;20.07;50.80;96400.81;10399281;28;20057;-53
2023/05/10 15:13:28;;;;;;;4.25;3.50;;;;;;;20.07;50.90;96403.53;10396703;28;20042;-53
2023/05/10 15:18:48;;;;;;;3.95;3.10;;;;;;;20.06;50.94;96408.16;10397832;28;20094;-53
2023/05/10 15:24:08;;;;;;;3.22;2.92;;;;;;;20.06;50.91;96407.38;10396299;28;20526;-53
2023/05/10 15:29:29;;;;;;;3.50;2.85;;;;;;;20.05;50.93;96413.91;10394173;28;20060;-53
2023/05/10 15:34:48;;;;;;;4.70;3.00;;;;;;;20.05;50.89;96420.13;10410391;28;20044;-53
2023/05/10 15:40:08;;;;;;;3.83;3.42;;;;;;;20.06;50.76;96415.50;10418522;28;20053;-53
2023/05/10 15:45:28;;;;;;;3.45;2.78;;;;;;;20.03;48.12;96418.84;10393300;28;20045;-53
2023/05/10 15:50:47;;;;;;;5.88;2.80;;;;;;;20.00;46.71;96417.63;10408512;28;20057;-53
2023/05/10 15:56:07;;;;;;;7.97;2.65;;;;;;;19.96;45.80;96414.00;10390249;28;20479;-54
2023/05/10 16:01:27;;;;;;;4.70;2.45;;;;;;;19.96;45.17;96419.41;10390005;28;20049;-53
2023/05/10 16:06:46;;;;;;;3.85;2.42;;;;;;;19.92;45.09;96411.19;10427988;28;20512;-54
2023/05/10 16:12:07;;;;;;;7.40;2.30;;;;;;;19.90;44.50;96407.25;10389974;28;20041;-54
2023/05/10 16:17:26;;;;;;;6.03;2.25;;;;;;;19.89;44.31;96414.53;10391717;28;20403;-54
2023/05/10 16:22:46;;;;;;;3.67;2.20;;;;;;;19.87;45.13;96422.19;10410447;28;20038;-54
2023/05/10 16:28:06;;;;;;;6.18;2.30;;;;;;;19.88;46.09;96421.09;10388978;28;20046;-54
2023/05/10 16:33:25;;;;;;;4.47;2.30;;;;;;;19.87;46.38;96430.31;10404884;28;20041;-53
2023/05/10 16:38:45;;;;;;;2.38;2.17;;;;;;;19.87;46.33;96430.31;10388451;28;20042;-52
2023/05/10 16:44:04;;;;;;;2.45;2.03;;;;;;;19.88;46.78;96433.84;10402923;28;20093;-54
2023/05/10 16:49:25;;;;;;;3.50;2.25;;;;;;;19.86;46.81;96433.38;10384509;28;20506;-53
2023/05/10 16:54:45;;;;;;;2.30;1.90;;;;;;;19.85;46.84;96446.06;10388100;28;20056;-54
2023/05/10 17:00:05;;;;;;;4.10;2.40;;;;;;;19.85;46.90;96446.06;10393310;28;20040;-55
2023/05/10 17:05:25;;;;;;;3.15;2.30;;;;;;;19.85;47.10;96451.47;10392695;28;20042;-54
2023/05/10 17:10:45;;;;;;;6.30;2.33;;;;;;;19.85;47.32;96454.19;10398738;28;20042;-59
2023/05/10 17:16:04;;;;;;;2.95;2.17;;;;;;;19.86;47.70;96463.91;10398123;28;20054;-59
2023/05/10 17:21:25;;;;;;;4.68;2.42;;;;;;;19.85;47.75;96464.22;10408327;28;20057;-60
2023/05/10 17:26:44;;;;;;;3.22;2.10;;;;;;;19.84;48.10;96471.53;10427800;28;20049;-60
2023/05/10 17:32:04;;;;;;;2.97;2.20;;;;;;;19.84;48.13;96474.25;10410729;28;20087;-61
2023/05/10 17:37:24;;;;;;;3.90;2.38;;;;;;;19.83;48.38;96483.47;10377150;28;20068;-56
2023/05/10 17:42:43;;;;;;;4.55;2.15;;;;;;;19.83;48.72;96483.47;10412697;28;20088;-60
2023/05/10 17:48:03;;;;;;;4.93;2.30;;;;;;;19.82;48.86;96484.59;10402882;28;20057;-61
2023/05/10 17:53:23;;;;;;;2.47;2.28;;;;;;;19.82;48.93;96491.94;10415126;28;20042;-62
2023/05/10 17:58:43;;;;;;;4.57;2.10;;;;;;;19.83;49.16;96502.38;10400153;28;20069;-61
2023/05/10 18:04:03;;;;;;;5.05;1.95;;;;;;;19.81;49.18;96501.94;10374071;28;20081;-59
2023/05/10 18:09:22;;;;;;;3.78;2.10;;;;;;;19.78;48.75;96502.63;10388321;28;20498;-60
2023/05/10 18:14:42;;;;;;;3.83;2.30;;;;;;;19.77;48.69;96506.44;10396221;28;20042;-55
2023/05/10 18:20:02;;;;;;;4.82;2.15;;;;;;;19.76;48.46;96521.09;10385197;28;20050;-55
2023/05/10 18:25:22;;;;;;;3.00;2.10;;;;;;;19.75;48.47;96522.97;10385082;28;20096;-54
2023/05/10 18:30:42;;;;;;;8.70;2.53;;;;;;;19.73;48.41;96527.91;10393221;28;20045;-55
2023/05/10 18:36:03;;;;;;;4.70;2.42;;;;;;;19.73;48.56;96519.81;10395815;28;20053;-55
2023/05/10 18:41:25;;;;;;;3.90;2.90;;;;;;;19.74;48.68;96534.13;10402358;28;20089;-56
2023/05/10 18:46:44;;;;;;;4.95;3.13;;;;;;;19.73;48.71;96546.84;10414389;28;20068;-55
2023/05/10 18:52:04;;;;;;;7.25;3.72;;;;;;;19.63;47.85;96551.84;10379692;28;20061;-59
2023/05/10 18:57:24;;;;;;;5.10;3.67;;;;;;;19.63;48.36;96560.72;10411341;28;20045;-54
2023/05/10 19:02:43;;;;;;;6.05;4.13;;;;;;;19.34;47.04;96575.88;10393281;28;20068;-55
2023/05/10 19:08:03;;;;;;;5.10;3.80;;;;;;;19.38;47.47;96576.00;10418782;28;20095;-59
2023/05/10 19:13:23;;;;;;;4.43;3.38;;;;;;;19.50;48.39;96584.19;10419484;28;20042;-54
2023/05/10 19:18:44;;;;;;;6.38;3.70;;;;;;;19.56;48.90;96585.59;10377992;28;20038;-54
2023/05/10 19:24:04;;;;;;;4.60;3.53;;;;;;;19.60;49.32;96587.63;10423611;28;20037;-54
2023/05/10 19:29:23;;;;;;;9.07;4.10;;;;;;;19.63;50.09;96589.66;10400439;28;20422;-54
2023/05/10 19:34:43;;;;;;;6.43;3.70;;;;;;;19.63;50.62;96590.47;10413488;28;20117;-54
2023/05/10 19:40:03;;;;;;;5.60;3.45;;;;;;;19.65;50.83;96592.84;10409467;28;20481;-53
2023/05/10 19:45:23;;;;;;;5.95;4.13;;;;;;;19.66;51.17;96594.41;10409894;28;20076;-54
2023/05/10 19:50:42;;;;;;;5.72;3.80;;;;;;;19.67;51.38;96598.69;10391018;28;20108;-55
2023/05/10 19:56:03;;;;;;;7.55;4.03;;;;;;;19.67;52.35;96593.28;10396026;28;20042;-54
2023/05/10 20:01:23;;;;;;;4.97;3.58;;;;;;;19.67;52.15;96590.59;10393190;28;20490;-54
2023/05/10 20:06:42;;;;;;;2.88;2.35;;;;;;;19.69;52.81;96588.34;10401301;28;20042;-55
2023/05/10 20:12:02;;;;;;;5.43;3.58;;;;;;;19.68;52.70;96590.28;10399433;28;20486;-55
2023/05/10 20:17:22;;;;;;;4.80;3.22;;;;;;;19.68;52.39;96594.84;10408584;28;20041;-55
2023/05/10 20:22:43;;;;;;;4.55;3.25;;;;;;;19.68;52.38;96595.69;10393844;28;20041;-55
2023/05/10 20:28:03;;;;;;;5.28;3.50;;;;;;;19.67;52.33;96599.47;10403790;28;20046;-55
2023/05/10 20:33:22;;;;;;;5.40;3.70;;;;;;;19.68;52.46;96586.75;10401087;28;20037;-55
2023/05/10 20:38:42;;;;;;;5.03;3.45;;;;;;;19.67;52.50;96583.28;10391494;28;20038;-55
2023/05/10 20:44:02;;;;;;;5.07;3.65;;;;;;;19.68;53.25;96584.06;10403964;28;20048;-55
2023/05/10 20:49:21;;;;;;;4.90;3.45;;;;;;;19.67;52.88;96577.06;10393892;28;20068;-55
2023/05/10 20:54:41;;;;;;;4.38;3.58;;;;;;;19.67;52.84;96577.06;10401598;28;20092;-55
2023/05/10 21:00:00;;;;;;;5.75;3.80;;;;;;;19.67;52.93;96574.38;10387710;28;20069;-55
2023/05/10 21:05:20;;;;;;;3.88;3.10;;;;;;;19.67;53.06;96577.06;10377461;28;20050;-55
2023/05/10 21:10:40;;;;;;;4.25;3.33;;;;;;;19.66;53.15;96576.28;10390527;28;20049;-55
2023/05/10 21:16:00;;;;;;;5.25;3.45;;;;;;;19.67;53.11;96579.78;10401120;28;20076;-55
2023/05/10 21:21:19;;;;;;;4.40;3.47;;;;;;;19.65;53.18;96569.28;10406437;28;20037;-55
2023/05/10 21:26:39;;;;;;;3.38;2.65;;;;;;;19.65;53.20;96574.69;10386433;28;20494;-55
2023/05/10 21:31:58;;;;;;;4.15;3.05;;;;;;;19.65;53.26;96579.31;10397195;28;20046;-55
2023/05/10 21:37:18;;;;;;;2.95;2.65;;;;;;;19.65;53.58;96579.31;10389329;28;20075;-55
2023/05/10 21:42:38;;;;;;;4.28;2.90;;;;;;;19.64;53.71;96578.53;10386013;28;20473;-55
2023/05/10 21:48:03;;;;;;;3.53;2.58;;;;;;;19.65;53.63;96573.91;10395938;28;20064;-55
2023/05/10 21:53:23;;;;;;;4.05;3.22;;;;;;;19.64;53.78;96575.03;10388791;28;20513;-55
2023/05/10 21:58:43;;;;;;;3.10;2.80;;;;;;;19.63;53.89;96574.25;10388835;28;20500;-55
2023/05/10 22:04:02;;;;;;;4.07;3.05;;;;;;;19.62;53.92;96569.16;10388993;28;20048;-55
2023/05/10 22:09:23;;;;;;;3.63;3.08;;;;;;;19.62;53.96;96575.38;10390237;28;20057;-55
2023/05/10 22:14:42;;;;;;;4.05;2.70;;;;;;;19.62;54.01;96580.78;10400368;28;20069;-55
2023/05/10 22:20:02;;;;;;;3.50;2.90;;;;;;;19.61;54.15;96570.28;10383614;28;20104;-55
2023/05/10 22:25:21;;;;;;;3.70;2.80;;;;;;;19.61;54.23;96575.69;10396638;28;20049;-55
2023/05/10 22:30:42;;;;;;;3.05;2.50;;;;;;;19.61;54.17;96578.41;10411518;28;20041;-55
2023/05/10 22:36:01;;;;;;;3.17;2.75;;;;;;;19.60;54.40;96571.41;10426807;28;20042;-55
2023/05/10 22:41:22;;;;;;;4.32;2.90;;;;;;;19.61;54.29;96578.41;10394851;28;20116;-55
2023/05/10 22:46:41;;;;;;;3.25;2.80;;;;;;;19.60;54.53;96566.00;10383008;28;20116;-55
2023/05/10 22:52:01;;;;;;;3.35;3.00;;;;;;;19.61;54.57;96578.41;10390993;28;20057;-55
2023/05/10 22:57:20;;;;;;;2.88;2.67;;;;;;;19.59;54.61;96577.94;10392523;28;20406;-55
2023/05/10 23:02:40;;;;;;;2.67;2.47;;;;;;;19.58;54.63;96574.44;10404619;28;20048;-55
2023/05/10 23:08:00;;;;;;;3.55;2.65;;;;;;;19.59;54.75;96577.94;10411718;28;20046;-55
2023/05/10 23:13:20;;;;;;;2.95;2.58;;;;;;;19.58;54.69;96573.66;10396151;28;20038;-55
2023/05/10 23:18:40;;;;;;;4.75;2.67;;;;;;;19.59;54.77;96580.66;10404415;28;20060;-55
2023/05/10 23:23:59;;;;;;;3.05;2.65;;;;;;;19.56;54.92;96574.78;10407222;28;20042;-55
2023/05/10 23:29:18;;;;;;;3.00;2.70;;;;;;;19.56;54.83;96569.38;10395568;28;20465;-55
2023/05/10 23:34:38;;;;;;;3.35;2.78;;;;;;;19.56;54.88;96577.47;10417624;28;20100;-55
2023/05/10 23:39:58;;;;;;;2.60;2.40;;;;;;;19.55;54.91;96575.09;10390926;28;20049;-55
2023/05/10 23:45:18;;;;;;;2.50;2.30;;;;;;;19.54;54.95;96566.22;10417544;28;20096;-55
2023/05/10 23:50:43;;;;;;;2.90;2.60;;;;;;;19.54;55.01;96568.91;10393029;28;20054;-55
2023/05/10 23:56:03;;;;;;;3.28;2.70;;;;;;;19.53;55.04;96561.91;10403383;28;20490;-55
